createdAt,value
2018-09-06T00:05:02.616Z,100579.13
2018-09-06T00:10:06.375Z,100581.03
2018-09-06T00:15:10.027Z,100575.15
2018-09-06T00:20:13.636Z,100565.31
2018-09-06T00:25:17.195Z,100563.08
2018-09-06T00:30:29.175Z,100567.02
2018-09-06T00:35:32.674Z,100559.30
2018-09-06T00:40:36.718Z,100558.27
2018-09-06T00:45:40.211Z,100554.32
2018-09-06T00:50:43.781Z,100544.88
2018-09-06T00:55:50.531Z,100542.58
2018-09-06T01:00:54.295Z,100534.83
2018-09-06T01:05:57.827Z,100521.95
2018-09-06T01:11:01.484Z,100520.08
2018-09-06T01:16:05.262Z,100519.87
2018-09-06T01:21:08.798Z,100516.69
2018-09-06T01:26:12.393Z,100512.77
2018-09-06T01:31:15.962Z,100510.50
2018-09-06T01:36:24.727Z,100505.95
2018-09-06T01:41:28.417Z,100507.94
2018-09-06T01:46:31.964Z,100502.25
2018-09-06T01:51:35.962Z,100494.06
2018-09-06T01:56:39.452Z,100492.06
2018-09-06T02:01:44.026Z,100482.85
2018-09-06T02:06:47.586Z,100487.33
2018-09-06T02:11:51.721Z,100471.31
2018-09-06T02:16:55.221Z,100478.91
2018-09-06T02:21:58.748Z,100474.27
2018-09-06T02:27:02.289Z,100468.55
2018-09-06T02:32:05.920Z,100464.05
2018-09-06T02:37:09.398Z,100468.95
2018-09-06T02:42:13.354Z,100459.24
2018-09-06T02:47:16.916Z,100456.45
2018-09-06T02:52:20.561Z,100449.20
2018-09-06T02:57:24.081Z,100451.12
2018-09-06T03:02:27.712Z,100446.42
2018-09-06T03:07:31.313Z,100452.44
2018-09-06T03:12:34.983Z,100446.19
2018-09-06T03:17:38.685Z,100448.36
2018-09-06T03:22:42.221Z,100443.98
2018-09-06T03:27:45.694Z,100444.77
2018-09-06T03:32:49.320Z,100457.86
2018-09-06T03:37:52.838Z,100454.42
2018-09-06T03:42:56.527Z,100448.20
2018-09-06T03:48:00.094Z,100452.06
2018-09-06T03:53:03.629Z,100443.84
2018-09-06T03:58:07.217Z,100447.19
2018-09-06T04:03:10.808Z,100444.34
2018-09-06T04:08:14.435Z,100439.55
2018-09-06T04:13:18.062Z,100432.34
2018-09-06T04:18:22.026Z,100428.69
2018-09-06T04:23:25.846Z,100425.55
2018-09-06T04:28:30.179Z,100431.06
2018-09-06T04:33:34.938Z,100425.52
2018-09-06T04:38:38.436Z,100434.80
2018-09-06T04:43:42.050Z,100432.14
2018-09-06T04:48:45.650Z,100444.42
2018-09-06T04:53:49.696Z,100448.75
2018-09-06T04:58:53.543Z,100447.33
2018-09-06T05:03:57.116Z,100442.27
2018-09-06T05:09:00.637Z,100438.40
2018-09-06T05:14:04.764Z,100440.91
2018-09-06T05:19:08.237Z,100439.05
2018-09-06T05:24:12.105Z,100441.77
2018-09-06T05:29:15.593Z,100443.69
2018-09-06T05:34:19.091Z,100442.62
2018-09-06T05:39:22.564Z,100439.91
2018-09-06T05:44:27.000Z,100437.72
2018-09-06T05:49:30.477Z,100448.25
2018-09-06T05:54:34.011Z,100455.53
2018-09-06T05:59:37.625Z,100448.88
2018-09-06T06:04:41.119Z,100451.89
2018-09-06T06:09:44.717Z,100449.69
2018-09-06T06:14:48.261Z,100445.77
2018-09-06T06:19:51.766Z,100450.00
2018-09-06T06:24:55.258Z,100447.29
2018-09-06T06:29:58.752Z,100452.32
2018-09-06T06:35:02.340Z,100452.91
2018-09-06T06:40:06.028Z,100452.20
2018-09-06T06:45:09.819Z,100450.02
2018-09-06T06:50:13.391Z,100445.55
2018-09-06T06:55:17.042Z,100435.98
2018-09-06T07:00:28.078Z,100433.81
2018-09-06T07:05:31.576Z,100441.28
2018-09-06T07:10:35.118Z,100443.92
2018-09-06T07:15:38.710Z,100445.44
2018-09-06T07:20:42.173Z,100455.52
2018-09-06T07:25:46.597Z,100444.44
2018-09-06T07:30:50.483Z,100436.05
2018-09-06T07:35:54.142Z,100433.80
2018-09-06T07:40:57.629Z,100427.92
2018-09-06T07:46:01.385Z,100430.23
2018-09-06T07:51:04.993Z,100431.34
2018-09-06T07:56:08.921Z,100424.33
2018-09-06T08:01:12.393Z,100434.59
2018-09-06T08:06:15.977Z,100435.02
2018-09-06T08:11:19.721Z,100438.51
2018-09-06T08:16:23.458Z,100432.12
2018-09-06T08:21:26.922Z,100424.53
2018-09-06T08:26:31.922Z,100425.61
2018-09-06T08:31:35.861Z,100424.36
2018-09-06T08:36:40.076Z,100419.19
2018-09-06T08:41:43.674Z,100419.17
2018-09-06T08:46:47.840Z,100426.28
2018-09-06T08:51:51.400Z,100428.77
2018-09-06T08:56:55.145Z,100432.18
2018-09-06T09:01:59.119Z,100426.91
2018-09-06T09:07:02.718Z,100428.68
2018-09-06T09:12:06.470Z,100429.44
2018-09-06T09:17:10.054Z,100426.87
2018-09-06T09:22:14.112Z,100424.63
2018-09-06T09:27:17.633Z,100418.97
2018-09-06T09:32:21.140Z,100418.02
2018-09-06T09:37:24.727Z,100418.56
2018-09-06T09:42:28.327Z,100415.22
2018-09-06T09:52:37.758Z,100405.61
2018-09-06T09:57:41.288Z,100399.75
2018-09-06T10:02:50.221Z,100387.83
2018-09-06T10:07:57.919Z,100384.11
2018-09-06T10:13:01.644Z,100393.44
2018-09-06T10:18:05.234Z,100385.40
2018-09-06T10:23:08.838Z,100380.30
2018-09-06T10:28:12.506Z,100379.12
2018-09-06T10:33:16.019Z,100383.10
2018-09-06T10:38:19.637Z,100378.91
2018-09-06T10:43:23.443Z,100370.45
2018-09-06T10:48:26.962Z,100366.09
2018-09-06T10:53:30.541Z,100366.40
2018-09-06T10:58:34.114Z,100364.69
2018-09-06T11:03:37.759Z,100370.02
2018-09-06T11:08:41.277Z,100366.33
2018-09-06T11:13:44.860Z,100362.97
2018-09-06T11:18:48.605Z,100373.18
2018-09-06T11:23:52.711Z,100366.86
2018-09-06T11:28:56.253Z,100366.21
2018-09-06T11:33:59.829Z,100350.95
2018-09-06T11:39:04.787Z,100358.53
2018-09-06T11:44:08.651Z,100356.94
2018-09-06T11:49:12.289Z,100357.09
2018-09-06T11:54:16.113Z,100359.30
2018-09-06T11:59:19.600Z,100362.18
2018-09-06T12:04:25.358Z,100362.86
2018-09-06T12:09:28.836Z,100371.70
2018-09-06T12:14:33.285Z,100380.13
2018-09-06T12:19:36.865Z,100380.10
2018-09-06T12:24:40.730Z,100376.23
2018-09-06T12:29:44.325Z,100385.59
2018-09-06T12:34:48.794Z,100371.06
2018-09-06T12:39:52.373Z,100381.44
2018-09-06T12:44:56.554Z,100389.69
2018-09-06T12:50:00.045Z,100388.95
2018-09-06T12:55:03.617Z,100401.64
2018-09-06T13:00:10.047Z,100405.57
2018-09-06T13:05:13.694Z,100406.80
2018-09-06T13:10:17.248Z,100395.77
2018-09-06T13:15:20.855Z,100389.48
2018-09-06T13:20:24.343Z,100381.88
2018-09-06T13:25:28.246Z,100372.56
2018-09-06T13:30:35.602Z,100369.45
2018-09-06T13:35:39.262Z,100374.49
2018-09-06T13:40:43.756Z,100367.62
2018-09-06T13:45:47.361Z,100361.70
2018-09-06T13:50:51.663Z,100342.87
2018-09-06T13:55:55.353Z,100336.22
2018-09-06T14:00:59.443Z,100323.33
2018-09-06T14:06:02.990Z,100319.74
2018-09-06T14:11:06.555Z,100318.44
2018-09-06T14:16:10.120Z,100311.16
2018-09-06T14:21:13.878Z,100309.23
2018-09-06T14:26:17.605Z,100305.37
2018-09-06T14:31:21.569Z,100306.59
2018-09-06T14:36:25.564Z,100297.36
2018-09-06T14:41:29.121Z,100290.21
2018-09-06T14:46:32.704Z,100292.13
2018-09-06T14:51:36.267Z,100285.77
2018-09-06T14:56:39.796Z,100275.01
2018-09-06T15:01:45.532Z,100270.44
2018-09-06T15:06:49.047Z,100274.36
2018-09-06T15:11:52.545Z,100264.08
2018-09-06T15:16:56.527Z,100255.48
2018-09-06T15:22:00.069Z,100254.84
2018-09-06T15:27:03.709Z,100254.06
2018-09-06T15:32:08.276Z,100245.03
2018-09-06T15:37:11.829Z,100240.19
2018-09-06T15:42:15.351Z,100237.91
2018-09-06T15:47:18.924Z,100236.48
2018-09-06T15:52:23.503Z,100233.00
2018-09-06T15:57:27.133Z,100223.22
2018-09-06T16:02:38.403Z,100211.00
2018-09-06T16:07:42.555Z,100214.33
2018-09-06T16:12:46.101Z,100209.44
2018-09-06T16:17:49.718Z,100226.06
2018-09-06T16:22:53.341Z,100219.80
2018-09-06T16:27:57.144Z,100229.49
2018-09-06T16:33:00.655Z,100230.81
2018-09-06T16:38:04.394Z,100221.22
2018-09-06T16:43:07.884Z,100217.72
2018-09-06T16:48:12.310Z,100218.97
2018-09-06T16:53:16.191Z,100222.38
2018-09-06T16:58:20.081Z,100217.74
2018-09-06T17:03:23.606Z,100222.77
2018-09-06T17:08:27.224Z,100225.22
2018-09-06T17:13:31.815Z,100235.64
2018-09-06T17:18:35.652Z,100245.64
2018-09-06T17:23:39.238Z,100243.92
2018-09-06T17:28:43.201Z,100241.42
2018-09-06T17:33:46.783Z,100249.72
2018-09-06T17:38:50.897Z,100246.52
2018-09-06T17:43:54.558Z,100236.73
2018-09-06T17:48:59.104Z,100236.63
2018-09-06T17:54:02.935Z,100238.60
2018-09-06T17:59:06.556Z,100244.48
2018-09-06T18:04:10.930Z,100237.60
2018-09-06T18:09:14.995Z,100239.88
2018-09-06T18:14:18.568Z,100228.78
2018-09-06T18:19:23.716Z,100215.46
2018-09-06T18:24:27.306Z,100232.16
2018-09-06T18:29:31.583Z,100228.52
2018-09-06T18:34:35.079Z,100235.70
2018-09-06T18:39:43.206Z,100245.45
2018-09-06T18:44:46.838Z,100244.78
2018-09-06T18:49:50.496Z,100241.13
2018-09-06T18:54:54.049Z,100248.74
2018-09-06T18:59:57.827Z,100245.59
2018-09-06T19:05:01.685Z,100253.77
2018-09-06T19:10:07.309Z,100249.48
2018-09-06T19:15:10.830Z,100250.42
2018-09-06T19:20:15.250Z,100244.06
2018-09-06T19:25:18.784Z,100243.45
2018-09-06T19:30:42.277Z,100247.23
2018-09-06T19:35:46.597Z,100246.00
2018-09-06T19:40:50.307Z,100248.79
2018-09-06T19:45:54.262Z,100255.45
2018-09-06T19:50:57.821Z,100257.02
2018-09-06T19:56:01.382Z,100249.17
2018-09-06T20:01:04.930Z,100251.55
2018-09-06T20:06:08.606Z,100251.23
2018-09-06T20:11:12.273Z,100246.80
2018-09-06T20:16:15.807Z,100256.10
2018-09-06T20:21:19.373Z,100259.33
2018-09-06T20:26:22.855Z,100258.54
2018-09-06T20:31:26.638Z,100256.13
2018-09-06T20:36:30.238Z,100256.40
2018-09-06T20:41:33.756Z,100257.19
2018-09-06T20:46:37.880Z,100256.37
2018-09-06T20:51:41.478Z,100250.23
2018-09-06T20:56:45.621Z,100263.20
2018-09-06T21:01:49.164Z,100251.93
2018-09-06T21:06:52.646Z,100258.19
2018-09-06T21:11:56.372Z,100256.78
2018-09-06T21:17:00.453Z,100260.45
2018-09-06T21:22:04.118Z,100259.06
2018-09-06T21:27:07.849Z,100259.45
2018-09-06T21:32:11.593Z,100259.31
2018-09-06T21:37:15.082Z,100250.69
2018-09-06T21:42:19.050Z,100254.08
2018-09-06T21:47:22.579Z,100251.28
2018-09-06T21:52:26.249Z,100248.17
2018-09-06T21:57:30.578Z,100259.33
2018-09-06T22:02:39.513Z,100267.45
2018-09-06T22:07:43.094Z,100262.94
2018-09-06T22:12:47.328Z,100262.06
2018-09-06T22:17:50.889Z,100253.20
2018-09-06T22:22:54.450Z,100266.77
2018-09-06T22:27:58.039Z,100251.75
2018-09-06T22:33:01.564Z,100255.66
2018-09-06T22:38:05.352Z,100254.72
2018-09-06T22:43:09.766Z,100251.80
2018-09-06T22:48:13.264Z,100260.56
2018-09-06T22:53:17.296Z,100261.58
2018-09-06T22:58:20.881Z,100268.76
2018-09-06T23:03:29.797Z,100274.37
2018-09-06T23:08:34.127Z,100271.27
2018-09-06T23:13:37.962Z,100274.80
2018-09-06T23:18:42.304Z,100272.34
2018-09-06T23:23:50.480Z,100276.12
2018-09-06T23:28:54.535Z,100278.06
2018-09-06T23:33:58.162Z,100274.02
2018-09-06T23:39:02.008Z,100272.47
2018-09-06T23:44:05.584Z,100274.41
2018-09-06T23:49:09.643Z,100284.14
2018-09-06T23:54:13.414Z,100278.77
2018-09-06T23:59:16.984Z,100277.44
